Time;durP1;ratioP1;P1;durP2;ratioP2;P2;SDS_P1;SDS_P2;PMS_P1;PMS_P2;Temp;Humidity;BMP_temperature;BMP_pressure;BME280_temperature;BME280_humidity;BME280_pressure;Samples;Min_cycle;Max_cycle;Signal;HPM_P1;HPM_P2
2021/06/02 00:02:33;;;;;;;5.05;4.55;;;13.40;87.20;;;;;;5092375;28;20248;-39
2021/06/02 00:05:19;;;;;;;4.82;4.38;;;13.40;87.50;;;;;;5092194;28;20225;-42
2021/06/02 00:08:08;;;;;;;6.75;4.43;;;13.40;87.80;;;;;;5092318;28;20676;-39
2021/06/02 00:10:36;;;;;;;6.15;4.72;;;13.40;88.90;;;;;;5092161;28;20207;-39
2021/06/02 00:13:04;;;;;;;5.93;4.43;;;13.40;88.50;;;;;;5091910;28;20213;-41
2021/06/02 00:15:32;;;;;;;4.72;4.20;;;13.40;89.00;;;;;;5092274;28;20211;-39
2021/06/02 00:18:00;;;;;;;6.38;5.10;;;13.40;89.90;;;;;;5091921;28;20669;-39
2021/06/02 00:20:29;;;;;;;4.10;3.80;;;13.40;89.50;;;;;;5091561;28;20717;-40
2021/06/02 00:22:57;;;;;;;6.20;4.68;;;13.30;89.80;;;;;;5092023;28;20586;-39
2021/06/02 00:25:26;;;;;;;4.35;3.83;;;13.30;90.00;;;;;;5091941;28;20234;-39
2021/06/02 00:27:55;;;;;;;4.88;3.85;;;13.30;90.20;;;;;;5092036;28;20280;-39
2021/06/02 00:30:23;;;;;;;4.55;4.10;;;13.30;90.30;;;;;;5092068;28;20301;-39
2021/06/02 00:32:51;;;;;;;5.05;3.88;;;13.30;90.40;;;;;;5092045;28;20220;-40
2021/06/02 00:35:20;;;;;;;5.35;4.38;;;13.30;90.50;;;;;;5091972;28;20240;-41
2021/06/02 00:37:49;;;;;;;5.30;4.47;;;13.30;90.60;;;;;;5091877;28;20214;-39
2021/06/02 00:40:27;;;;;;;5.88;5.32;;;13.30;90.80;;;;;;5091842;28;20209;-39
2021/06/02 00:42:56;;;;;;;6.07;5.47;;;13.20;91.00;;;;;;5091795;28;20253;-38
2021/06/02 00:45:25;;;;;;;5.07;4.57;;;13.10;91.50;;;;;;5091937;28;20259;-39
2021/06/02 00:47:54;;;;;;;4.93;4.45;;;13.00;91.30;;;;;;5091773;28;20211;-42
2021/06/02 00:50:23;;;;;;;4.55;4.13;;;13.00;91.50;;;;;;5091482;28;20264;-39
2021/06/02 00:52:50;;;;;;;6.15;5.30;;;13.00;91.60;;;;;;5091903;28;20302;-39
2021/06/02 00:55:20;;;;;;;6.32;5.72;;;13.00;91.70;;;;;;5091717;28;20244;-39
2021/06/02 00:57:49;;;;;;;5.35;4.85;;;13.00;91.90;;;;;;5091786;28;20551;-39
2021/06/02 01:00:19;;;;;;;5.78;5.28;;;12.90;92.10;;;;;;5091686;28;20297;-39
2021/06/02 01:02:50;;;;;;;4.90;4.40;;;12.80;92.20;;;;;;5091644;28;20234;-39
2021/06/02 01:05:21;;;;;;;7.43;6.63;;;12.70;92.40;;;;;;5091581;28;20300;-39
2021/06/02 01:07:50;;;;;;;4.78;4.38;;;12.70;92.50;;;;;;5092842;28;20211;-39
2021/06/02 01:10:18;;;;;;;5.20;4.70;;;12.70;92.60;;;;;;5095165;28;20209;-40
2021/06/02 01:12:49;;;;;;;6.10;4.90;;;12.70;92.70;;;;;;5095380;28;20627;-38
2021/06/02 01:15:20;;;;;;;5.80;4.93;;;12.70;92.80;;;;;;5095258;28;20213;-38
2021/06/02 01:17:48;;;;;;;5.22;4.65;;;12.70;92.90;;;;;;5095267;28;20725;-39
2021/06/02 01:20:17;;;;;;;5.90;5.07;;;12.70;93.00;;;;;;5095129;28;20266;-39
2021/06/02 01:22:46;;;;;;;5.57;4.88;;;12.60;93.00;;;;;;5095336;28;20229;-39
2021/06/02 01:25:17;;;;;;;5.75;5.25;;;12.60;93.10;;;;;;5094954;28;20429;-38
2021/06/02 01:27:45;;;;;;;5.03;4.63;;;12.60;93.40;;;;;;5095434;28;20234;-38
2021/06/02 01:30:17;;;;;;;6.15;5.65;;;12.50;93.60;;;;;;5094913;28;20213;-38
2021/06/02 01:33:13;;;;;;;5.63;5.13;;;12.50;93.70;;;;;;5095827;28;20290;-40
2021/06/02 01:35:49;;;;;;;6.50;5.80;;;12.50;93.80;;;;;;5095340;28;20203;-40
2021/06/02 01:38:45;;;;;;;6.65;6.13;;;12.50;93.90;;;;;;5095001;28;20206;-39
2021/06/02 01:41:29;;;;;;;5.80;5.28;;;12.50;94.00;;;;;;5094911;28;20214;-38
2021/06/02 01:44:38;;;;;;;6.63;6.03;;;12.60;94.00;;;;;;5095108;28;20215;-38
2021/06/02 01:47:26;;;;;;;6.03;5.43;;;12.60;94.10;;;;;;5094816;28;20771;-38
2021/06/02 01:50:27;;;;;;;6.60;4.80;;;12.50;94.10;;;;;;5095121;28;20575;-39
2021/06/02 01:53:36;;;;;;;6.45;5.85;;;12.50;94.20;;;;;;5095071;28;20207;-38
2021/06/02 01:56:26;;;;;;;8.10;6.30;;;12.50;94.30;;;;;;5094983;28;20211;-38
2021/06/02 01:59:45;;;;;;;5.95;5.45;;;12.50;94.70;;;;;;5095161;28;20264;-39
2021/06/02 02:03:11;;;;;;;7.28;5.35;;;12.50;94.30;;;;;;5061597;28;20673;-38
2021/06/02 02:06:18;;;;;;;6.18;5.68;;;12.60;94.30;;;;;;5095143;28;20616;-38
2021/06/02 02:08:55;;;;;;;5.60;5.03;;;12.50;94.30;;;;;;5095069;28;20234;-43
2021/06/02 02:11:31;;;;;;;6.10;5.55;;;12.50;94.20;;;;;;5094720;28;20215;-40
2021/06/02 02:14:25;;;;;;;5.30;4.85;;;12.50;94.30;;;;;;5094255;28;20577;-39
2021/06/02 02:17:00;;;;;;;5.47;4.97;;;12.50;94.40;;;;;;5094179;28;20298;-40
2021/06/02 02:19:59;;;;;;;5.63;4.97;;;12.40;94.60;;;;;;5094289;28;20516;-40
2021/06/02 02:23:13;;;;;;;7.15;4.97;;;12.40;94.90;;;;;;5094259;28;20293;-41
2021/06/02 02:25:54;;;;;;;6.38;5.78;;;12.30;95.20;;;;;;5058112;28;20238;-40
2021/06/02 02:28:44;;;;;;;7.68;5.60;;;12.20;95.20;;;;;;5093945;28;20214;-40
2021/06/02 02:31:23;;;;;;;7.10;6.32;;;12.20;95.30;;;;;;5092376;28;20293;-40
2021/06/02 02:33:59;;;;;;;5.78;5.28;;;12.20;95.40;;;;;;5094150;28;20206;-39
2021/06/02 02:36:31;;;;;;;5.65;5.18;;;12.20;95.40;;;;;;5093733;28;20637;-40
2021/06/02 02:39:06;;;;;;;9.10;5.60;;;12.30;95.30;;;;;;5093987;28;20305;-39
2021/06/02 02:41:55;;;;;;;6.00;5.50;;;12.30;95.30;;;;;;5093779;28;20252;-39
2021/06/02 02:44:35;;;;;;;6.43;5.47;;;12.30;95.30;;;;;;5093622;28;20571;-39
2021/06/02 02:47:11;;;;;;;6.03;5.47;;;12.30;95.30;;;;;;5093526;28;20230;-40
2021/06/02 02:49:51;;;;;;;6.30;5.70;;;12.20;95.50;;;;;;5093786;28;20301;-38
2021/06/02 02:52:27;;;;;;;6.32;5.70;;;12.20;95.70;;;;;;5093598;28;20242;-39
2021/06/02 02:55:01;;;;;;;7.03;6.20;;;12.20;95.80;;;;;;5093458;28;20213;-39
2021/06/02 02:57:39;;;;;;;6.43;5.82;;;12.20;95.70;;;;;;5093168;28;20297;-40
2021/06/02 03:00:09;;;;;;;7.28;6.43;;;12.20;95.80;;;;;;5093496;28;20293;-39
2021/06/02 03:02:42;;;;;;;5.75;5.13;;;;;;;;;;5093407;28;20207;-37
2021/06/02 03:05:13;;;;;;;8.60;5.80;;;12.00;99.90;;;;;;5093375;28;20732;-37
2021/06/02 03:07:47;;;;;;;8.57;5.78;;;12.00;96.40;;;;;;5093120;28;20236;-37
2021/06/02 03:10:17;;;;;;;6.47;5.72;;;12.00;99.90;;;;;;5093189;28;20232;-37
2021/06/02 03:12:58;;;;;;;6.38;5.78;;;12.00;97.40;;;;;;5093322;28;20206;-37
2021/06/02 03:15:40;;;;;;;6.50;5.90;;;12.00;96.40;;;;;;5092891;28;20209;-38
2021/06/02 03:18:27;;;;;;;7.63;5.10;;;12.10;96.40;;;;;;5093069;28;20286;-40
2021/06/02 03:21:12;;;;;;;6.78;6.18;;;12.10;96.30;;;;;;5090159;28;20243;-38
2021/06/02 03:23:52;;;;;;;6.97;6.30;;;12.10;96.30;;;;;;5092839;28;20730;-38
2021/06/02 03:26:26;;;;;;;6.65;6.03;;;12.10;96.50;;;;;;5092767;28;20330;-38
2021/06/02 03:29:06;;;;;;;8.80;6.72;;;12.00;96.50;;;;;;5092611;28;20309;-38
2021/06/02 03:31:52;;;;;;;7.50;5.45;;;12.00;96.60;;;;;;5092053;28;20661;-39
2021/06/02 03:34:24;;;;;;;7.68;5.45;;;12.00;96.60;;;;;;5092599;28;20274;-40
2021/06/02 03:37:23;;;;;;;8.25;6.57;;;12.00;96.60;;;;;;5092552;28;20685;-40
2021/06/02 03:39:59;;;;;;;7.35;5.85;;;12.00;96.80;;;;;;5092694;28;20225;-38
2021/06/02 03:42:37;;;;;;;6.75;6.10;;;12.00;96.70;;;;;;5092449;28;20300;-38
2021/06/02 03:45:20;;;;;;;7.45;6.15;;;12.00;96.90;;;;;;5092468;28;20301;-39
2021/06/02 03:47:57;;;;;;;6.70;6.05;;;12.00;99.90;;;;;;5092130;28;20711;-39
2021/06/02 03:50:28;;;;;;;7.00;6.40;;;11.90;97.00;;;;;;5092234;28;20216;-38
2021/06/02 03:53:11;;;;;;;9.57;7.00;;;11.90;97.10;;;;;;5092473;28;20680;-38
2021/06/02 03:55:44;;;;;;;8.15;7.32;;;12.00;97.20;;;;;;5092276;28;20297;-38
2021/06/02 03:58:24;;;;;;;10.27;7.47;;;12.00;97.10;;;;;;5092332;28;20298;-38
2021/06/02 04:01:04;;;;;;;8.98;6.68;;;12.00;97.10;;;;;;5092134;28;20754;-38
2021/06/02 04:03:47;;;;;;;10.05;7.45;;;12.10;97.00;;;;;;5091965;28;20276;-37
2021/06/02 04:06:20;;;;;;;9.68;7.07;;;12.10;97.10;;;;;;5091817;28;20669;-39
2021/06/02 04:08:55;;;;;;;7.90;7.10;;;12.10;97.10;;;;;;5091832;28;20301;-38
2021/06/02 04:11:35;;;;;;;9.27;7.57;;;12.10;97.20;;;;;;5092489;28;20208;-39
2021/06/02 04:14:04;;;;;;;7.75;6.95;;;12.20;97.20;;;;;;5092110;28;20301;-38
2021/06/02 04:16:37;;;;;;;8.63;7.13;;;12.40;97.00;;;;;;5091855;28;20389;-38
2021/06/02 04:19:08;;;;;;;7.53;6.82;;;12.50;96.70;;;;;;5092199;28;20293;-39
2021/06/02 04:21:38;;;;;;;7.13;6.50;;;12.60;96.60;;;;;;5092039;28;20673;-38
2021/06/02 04:24:07;;;;;;;7.63;6.85;;;12.70;96.50;;;;;;5091862;28;20211;-39
2021/06/02 04:26:37;;;;;;;9.35;6.68;;;12.80;96.40;;;;;;5091784;28;20318;-39
2021/06/02 04:29:08;;;;;;;9.18;7.55;;;12.80;96.50;;;;;;5091760;28;20293;-39
2021/06/02 04:31:38;;;;;;;7.80;6.82;;;12.80;96.60;;;;;;5091986;28;20256;-38
2021/06/02 04:34:06;;;;;;;6.38;5.78;;;12.80;96.60;;;;;;5092004;28;20687;-39
2021/06/02 04:36:35;;;;;;;8.40;6.82;;;12.90;96.50;;;;;;5091574;28;20238;-39
2021/06/02 04:39:03;;;;;;;8.27;7.47;;;12.90;96.40;;;;;;5091690;28;20305;-39
2021/06/02 04:41:30;;;;;;;10.50;8.02;;;13.00;96.30;;;;;;5091626;28;20293;-39
2021/06/02 04:43:59;;;;;;;9.25;6.82;;;13.00;96.30;;;;;;5094698;28;20246;-39
2021/06/02 04:46:27;;;;;;;13.48;7.00;;;13.00;96.30;;;;;;5096049;28;20375;-38
2021/06/02 04:48:55;;;;;;;6.53;5.78;;;13.00;96.60;;;;;;5096041;28;20218;-39
2021/06/02 04:52:00;;;;;;;6.90;6.35;;;13.10;96.30;;;;;;5095858;28;20316;-37
2021/06/02 04:54:57;;;;;;;9.93;7.13;;;13.20;96.20;;;;;;5096037;28;20264;-40
2021/06/02 04:58:04;;;;;;;7.22;6.63;;;13.20;96.10;;;;;;5096009;28;20291;-41
2021/06/02 05:01:13;;;;;;;9.43;7.30;;;13.20;96.10;;;;;;5072769;28;20626;-40
2021/06/02 05:07:26;;;;;;;8.68;6.22;;;13.30;96.00;;;;;;5089409;28;21081;-41
2021/06/02 05:10:37;;;;;;;7.47;6.00;;;13.50;95.70;;;;;;5088853;28;20199;-40
2021/06/02 05:13:38;;;;;;;7.80;6.90;;;13.60;95.40;;;;;;5089187;28;20301;-38
2021/06/02 05:16:48;;;;;;;9.02;7.55;;;13.90;94.90;;;;;;5089579;28;20213;-40
2021/06/02 05:19:57;;;;;;;37.25;16.20;;;14.20;94.40;;;;;;5075989;28;20293;-40
2021/06/02 05:22:53;;;;;;;18.10;10.05;;;14.50;94.00;;;;;;5089419;28;20656;-40
2021/06/02 05:26:11;;;;;;;12.05;8.20;;;14.70;93.50;;;;;;5089433;28;20256;-40
2021/06/02 05:29:29;;;;;;;19.67;8.95;;;14.90;93.00;;;;;;5088673;28;20309;-40
2021/06/02 05:32:35;;;;;;;14.73;7.13;;;15.10;92.90;;;;;;5088405;28;20207;-40
2021/06/02 05:36:01;;;;;;;8.75;6.78;;;15.30;92.20;;;;;;5088629;28;20246;-41
2021/06/02 05:38:50;;;;;;;10.68;6.53;;;15.30;91.90;;;;;;5089198;28;20572;-40
2021/06/02 05:41:55;;;;;;;8.68;6.05;;;15.30;91.50;;;;;;5089382;28;20307;-39
2021/06/02 05:44:52;;;;;;;7.88;7.05;;;15.40;91.40;;;;;;5079167;28;20214;-39
2021/06/02 05:48:06;;;;;;;12.90;6.30;;;15.50;91.40;;;;;;5089027;28;20419;-39
2021/06/02 05:51:03;;;;;;;9.65;6.60;;;15.70;90.90;;;;;;5088055;28;20714;-39
2021/06/02 05:54:09;;;;;;;10.25;5.97;;;15.80;90.60;;;;;;5089136;28;20211;-39
2021/06/02 05:57:22;;;;;;;8.48;6.05;;;15.80;90.30;;;;;;5088647;28;20285;-44
2021/06/02 06:00:14;;;;;;;10.13;5.63;;;15.80;90.30;;;;;;5088739;28;20211;-39
2021/06/02 06:03:07;;;;;;;6.50;5.70;;;15.90;90.20;;;;;;5088733;28;20213;-47
2021/06/02 06:05:56;;;;;;;13.27;6.57;;;16.00;90.00;;;;;;5088432;28;20274;-45
2021/06/02 06:09:04;;;;;;;9.43;6.72;;;16.20;88.90;;;;;;5088963;28;20286;-39
2021/06/02 06:11:53;;;;;;;6.03;5.53;;;16.30;89.10;;;;;;5088910;28;20588;-38
2021/06/02 06:14:54;;;;;;;6.97;5.57;;;16.50;88.50;;;;;;5088861;28;20219;-40
2021/06/02 06:17:49;;;;;;;6.35;5.13;;;16.70;87.60;;;;;;5080246;28;20217;-40
2021/06/02 06:20:34;;;;;;;6.55;5.95;;;16.70;86.90;;;;;;5074815;28;20705;-40
2021/06/02 06:23:41;;;;;;;7.22;6.20;;;16.90;86.50;;;;;;5074814;28;20250;-40
2021/06/02 06:26:14;;;;;;;6.72;5.97;;;16.90;86.80;;;;;;5074779;28;20231;-39
2021/06/02 06:28:49;;;;;;;8.88;5.43;;;16.90;86.00;;;;;;5074604;28;20234;-39
2021/06/02 06:31:21;;;;;;;6.75;5.22;;;17.00;85.70;;;;;;5074413;28;20294;-40
2021/06/02 06:33:52;;;;;;;5.55;5.15;;;17.10;85.50;;;;;;5074069;28;20207;-39
2021/06/02 06:36:23;;;;;;;9.90;5.43;;;17.20;85.00;;;;;;5073885;28;20235;-39
2021/06/02 06:39:01;;;;;;;6.30;5.35;;;17.30;84.60;;;;;;5074404;28;20208;-39
2021/06/02 06:41:31;;;;;;;5.47;4.97;;;17.30;84.50;;;;;;5073911;28;20302;-40
2021/06/02 06:44:01;;;;;;;5.55;5.00;;;17.30;83.90;;;;;;5074034;28;20299;-40
2021/06/02 06:46:30;;;;;;;5.32;4.82;;;17.40;83.10;;;;;;5073936;28;20701;-40
2021/06/02 06:49:01;;;;;;;5.60;5.20;;;17.40;82.60;;;;;;5073882;28;20619;-40
2021/06/02 06:51:32;;;;;;;6.07;5.40;;;17.40;81.70;;;;;;5073787;28;20302;-40
2021/06/02 06:54:00;;;;;;;6.22;4.85;;;17.50;81.60;;;;;;5073824;28;20311;-40
2021/06/02 06:56:29;;;;;;;5.53;5.03;;;17.60;81.30;;;;;;5073741;28;20253;-40
2021/06/02 06:58:59;;;;;;;6.45;5.50;;;17.70;81.00;;;;;;5073549;28;20275;-39
2021/06/02 07:01:26;;;;;;;6.07;5.50;;;17.70;80.80;;;;;;5073306;28;20204;-39
2021/06/02 07:03:57;;;;;;;7.05;5.90;;;17.70;80.50;;;;;;5073593;28;20207;-40
2021/06/02 07:06:26;;;;;;;6.68;5.18;;;17.70;80.60;;;;;;5073300;28;20277;-40
2021/06/02 07:08:54;;;;;;;5.20;4.78;;;17.80;80.40;;;;;;5073525;28;20636;-41
2021/06/02 07:11:22;;;;;;;6.10;5.13;;;17.80;80.30;;;;;;5073517;28;20654;-40
2021/06/02 07:13:51;;;;;;;10.63;5.22;;;17.90;80.30;;;;;;5073389;28;20636;-40
2021/06/02 07:16:20;;;;;;;6.22;4.85;;;17.90;79.80;;;;;;5073584;28;20203;-39
2021/06/02 07:18:51;;;;;;;6.40;5.65;;;18.00;79.20;;;;;;5073232;28;20203;-41
2021/06/02 07:21:21;;;;;;;6.22;5.53;;;18.20;78.90;;;;;;5073013;28;20207;-42
2021/06/02 07:23:50;;;;;;;7.25;5.75;;;18.30;78.50;;;;;;5073260;28;20298;-40
2021/06/02 07:26:18;;;;;;;7.75;5.25;;;18.40;78.10;;;;;;5073088;28;20304;-40
2021/06/02 07:29:06;;;;;;;7.05;5.32;;;18.50;77.90;;;;;;5072487;28;20507;-40
2021/06/02 07:31:33;;;;;;;6.45;5.60;;;18.60;77.30;;;;;;5073263;28;20239;-39
2021/06/02 07:34:01;;;;;;;6.68;4.78;;;18.80;76.40;;;;;;5073136;28;20212;-41
2021/06/02 07:36:28;;;;;;;5.63;5.13;;;18.90;75.70;;;;;;5072815;28;20231;-40
2021/06/02 07:38:57;;;;;;;5.38;4.97;;;18.90;75.00;;;;;;5072822;28;20347;-40
2021/06/02 07:41:25;;;;;;;9.40;6.50;;;18.90;74.90;;;;;;5072827;28;20302;-40
2021/06/02 07:43:52;;;;;;;6.53;4.72;;;19.00;74.60;;;;;;5072760;28;20215;-39
2021/06/02 07:46:20;;;;;;;5.65;5.07;;;18.90;74.40;;;;;;5073000;28;20296;-41
2021/06/02 07:48:48;;;;;;;4.95;4.45;;;19.00;74.50;;;;;;5072520;28;20681;-40
2021/06/02 07:51:15;;;;;;;6.63;5.25;;;19.10;74.30;;;;;;5072667;28;20204;-40
2021/06/02 07:53:43;;;;;;;20.88;6.25;;;19.20;73.80;;;;;;5072713;28;20217;-40
2021/06/02 07:56:11;;;;;;;7.78;5.35;;;19.30;73.40;;;;;;5072878;28;20629;-40
2021/06/02 07:58:39;;;;;;;8.32;5.72;;;19.50;73.10;;;;;;5072691;28;20609;-39
2021/06/02 08:01:07;;;;;;;9.45;5.18;;;19.40;72.80;;;;;;5072576;28;20207;-40
2021/06/02 08:03:34;;;;;;;6.68;4.70;;;19.50;72.80;;;;;;5072352;28;20302;-43
2021/06/02 08:06:02;;;;;;;7.95;5.40;;;19.70;72.20;;;;;;5072004;28;20709;-40
2021/06/02 08:08:29;;;;;;;8.38;5.50;;;19.80;71.80;;;;;;5072229;28;20279;-40
2021/06/02 08:10:57;;;;;;;8.77;5.93;;;19.80;71.50;;;;;;5072218;28;20544;-40
2021/06/02 08:13:26;;;;;;;7.10;5.65;;;20.00;71.40;;;;;;5071996;28;20210;-40
2021/06/02 08:15:53;;;;;;;6.70;5.25;;;20.10;71.10;;;;;;5072315;28;20298;-39
2021/06/02 08:18:21;;;;;;;6.47;5.03;;;20.20;70.60;;;;;;5072076;28;20203;-40
2021/06/02 08:20:49;;;;;;;5.63;5.07;;;20.20;70.10;;;;;;5071970;28;20243;-41
2021/06/02 08:23:16;;;;;;;7.07;6.30;;;20.20;69.50;;;;;;5072430;28;20233;-40
2021/06/02 08:25:43;;;;;;;6.03;4.50;;;20.30;69.30;;;;;;5071818;28;20250;-40
2021/06/02 08:28:11;;;;;;;8.35;5.68;;;20.30;69.00;;;;;;5072007;28;20211;-40
2021/06/02 08:30:40;;;;;;;6.93;5.10;;;20.40;68.90;;;;;;5072132;28;20203;-40
2021/06/02 08:33:08;;;;;;;7.10;4.53;;;20.40;68.90;;;;;;5071916;28;20576;-41
2021/06/02 08:35:36;;;;;;;9.10;6.35;;;20.30;69.00;;;;;;5072076;28;20650;-40
2021/06/02 08:38:03;;;;;;;6.03;4.95;;;20.40;69.10;;;;;;5072046;28;20207;-40
2021/06/02 08:40:31;;;;;;;6.85;6.18;;;20.50;68.90;;;;;;5071667;28;20247;-41
2021/06/02 08:42:59;;;;;;;6.43;5.20;;;20.70;68.40;;;;;;5071999;28;20625;-41
2021/06/02 08:45:27;;;;;;;5.75;4.38;;;20.80;67.70;;;;;;5071998;28;20294;-42
2021/06/02 08:47:56;;;;;;;6.60;5.88;;;20.90;67.00;;;;;;5072003;28;20211;-41
2021/06/02 08:50:24;;;;;;;6.70;4.30;;;21.10;66.60;;;;;;5072150;28;20656;-41
2021/06/02 08:52:52;;;;;;;14.40;5.55;;;21.20;65.80;;;;;;5072195;28;20222;-40
2021/06/02 08:55:22;;;;;;;4.72;4.32;;;21.30;65.30;;;;;;5071832;28;20204;-40
2021/06/02 08:57:51;;;;;;;5.97;5.40;;;21.40;64.80;;;;;;5071667;28;20337;-40
2021/06/02 09:00:22;;;;;;;6.35;5.70;;;21.40;65.30;;;;;;5072041;28;20249;-41
2021/06/02 09:02:53;;;;;;;5.07;4.10;;;21.30;63.60;;;;;;5071958;28;20247;-40
2021/06/02 09:05:24;;;;;;;4.30;3.88;;;21.20;63.70;;;;;;5071624;28;20293;-40
2021/06/02 09:07:53;;;;;;;5.25;4.05;;;21.20;64.40;;;;;;5071869;28;20318;-40
2021/06/02 09:10:23;;;;;;;7.05;4.45;;;21.20;63.50;;;;;;5071618;28;20219;-40
2021/06/02 09:12:56;;;;;;;6.95;4.38;;;21.30;63.30;;;;;;5071712;28;20219;-41
2021/06/02 09:15:24;;;;;;;9.55;4.70;;;21.50;63.00;;;;;;5071144;28;20642;-40
2021/06/02 09:17:57;;;;;;;6.32;4.72;;;21.60;62.40;;;;;;5072009;28;20304;-40
2021/06/02 09:20:37;;;;;;;4.63;3.53;;;21.70;61.80;;;;;;5071558;28;20203;-42
2021/06/02 09:23:28;;;;;;;7.03;5.57;;;21.80;61.40;;;;;;5071748;28;20195;-41
2021/06/02 09:26:14;;;;;;;5.82;4.68;;;21.80;61.00;;;;;;5071703;28;20232;-40
2021/06/02 09:28:53;;;;;;;3.75;3.45;;;21.90;61.00;;;;;;5070827;28;20298;-40
2021/06/02 09:31:26;;;;;;;5.93;4.20;;;21.90;60.60;;;;;;5071397;28;20207;-42
2021/06/02 09:33:54;;;;;;;6.47;4.82;;;21.90;60.40;;;;;;5071603;28;20207;-40
2021/06/02 09:36:30;;;;;;;5.88;4.22;;;22.00;60.00;;;;;;5071306;28;20298;-41
2021/06/02 09:39:00;;;;;;;4.38;3.63;;;22.10;59.60;;;;;;5071376;28;20246;-40
2021/06/02 09:41:29;;;;;;;4.65;3.60;;;22.10;59.50;;;;;;5071099;28;20239;-40
2021/06/02 09:43:59;;;;;;;4.68;3.95;;;22.20;59.10;;;;;;5071165;28;20219;-41
2021/06/02 09:46:26;;;;;;;8.85;7.95;;;22.20;58.90;;;;;;5071001;28;20223;-40
2021/06/02 09:49:02;;;;;;;4.75;4.30;;;22.20;58.90;;;;;;5071352;28;20298;-40
2021/06/02 09:51:37;;;;;;;4.22;3.75;;;22.40;58.80;;;;;;5071704;28;20203;-41
2021/06/02 09:54:07;;;;;;;6.22;3.92;;;22.50;58.30;;;;;;5075005;28;20211;-40
2021/06/02 09:56:37;;;;;;;4.70;4.13;;;22.60;58.10;;;;;;5074999;28;20237;-41
2021/06/02 09:59:08;;;;;;;4.60;3.35;;;22.70;57.70;;;;;;5075144;28;20221;-40
2021/06/02 10:01:58;;;;;;;3.97;3.60;;;22.80;57.40;;;;;;5074902;28;20331;-40
2021/06/02 10:04:31;;;;;;;6.10;4.13;;;22.90;56.80;;;;;;5074595;28;20211;-40
2021/06/02 10:07:01;;;;;;;7.60;4.60;;;23.00;56.70;;;;;;5075221;28;20228;-40
2021/06/02 10:09:30;;;;;;;4.20;3.80;;;23.00;56.20;;;;;;5074706;28;20315;-40
2021/06/02 10:12:04;;;;;;;5.80;4.30;;;23.10;56.20;;;;;;5074496;28;20291;-40
2021/06/02 10:14:38;;;;;;;5.10;4.68;;;23.10;55.00;;;;;;5074807;28;20207;-41
2021/06/02 10:17:25;;;;;;;6.07;4.95;;;23.20;55.00;;;;;;5074843;28;20627;-39
2021/06/02 10:19:57;;;;;;;5.05;3.85;;;23.30;54.50;;;;;;5074556;28;20207;-40
2021/06/02 10:22:27;;;;;;;8.68;5.00;;;23.30;54.50;;;;;;5074297;28;20711;-39
2021/06/02 10:24:57;;;;;;;4.35;3.58;;;23.30;53.90;;;;;;5074530;28;20286;-40
2021/06/02 10:27:25;;;;;;;4.40;4.00;;;23.30;54.00;;;;;;5073825;28;20650;-40
2021/06/02 10:29:53;;;;;;;5.90;3.67;;;23.40;54.00;;;;;;5074000;28;20301;-41
2021/06/02 10:32:22;;;;;;;5.03;3.72;;;23.60;53.70;;;;;;5074327;28;20700;-40
2021/06/02 10:34:51;;;;;;;13.10;5.90;;;23.70;53.10;;;;;;5074809;28;20268;-40
2021/06/02 10:37:21;;;;;;;7.65;6.00;;;23.90;52.60;;;;;;5074130;28;20298;-39
2021/06/02 10:39:57;;;;;;;9.18;7.05;;;23.90;52.00;;;;;;5073993;28;20644;-41
2021/06/02 10:42:32;;;;;;;8.52;7.45;;;24.00;51.90;;;;;;5074100;28;20578;-39
2021/06/02 10:45:03;;;;;;;5.70;4.38;;;24.00;51.90;;;;;;5074507;28;20601;-40
2021/06/02 10:47:31;;;;;;;4.65;3.80;;;24.10;52.00;;;;;;5074311;28;20228;-41
2021/06/02 10:49:58;;;;;;;5.60;4.22;;;24.20;52.00;;;;;;5074231;28;20244;-41
2021/06/02 10:52:40;;;;;;;6.65;3.88;;;24.10;51.80;;;;;;5073959;28;20310;-40
2021/06/02 10:55:34;;;;;;;9.45;4.38;;;24.10;52.00;;;;;;5074171;28;20213;-41
2021/06/02 10:58:21;;;;;;;4.05;3.65;;;24.00;52.10;;;;;;5073809;28;20207;-41
2021/06/02 11:00:51;;;;;;;5.90;3.65;;;24.00;52.00;;;;;;5073400;28;20676;-42
2021/06/02 11:03:25;;;;;;;3.47;3.13;;;24.00;51.00;;;;;;5073628;28;20385;-41
2021/06/02 11:05:57;;;;;;;4.10;3.50;;;24.10;49.40;;;;;;5073644;28;20241;-42
2021/06/02 11:08:57;;;;;;;6.68;5.88;;;24.10;49.10;;;;;;5073762;28;20237;-43
2021/06/02 11:11:30;;;;;;;3.67;3.38;;;24.20;47.70;;;;;;5066740;28;20302;-42
2021/06/02 11:14:20;;;;;;;4.75;4.35;;;24.20;49.00;;;;;;5073778;28;20638;-39
2021/06/02 11:16:49;;;;;;;4.97;3.15;;;24.10;47.60;;;;;;5073718;28;20282;-42
2021/06/02 11:19:19;;;;;;;4.60;2.88;;;24.00;47.20;;;;;;5073633;28;20264;-40
2021/06/02 11:22:01;;;;;;;3.28;2.50;;;24.00;46.40;;;;;;5073278;28;20299;-40
2021/06/02 11:24:46;;;;;;;3.03;2.83;;;24.10;45.50;;;;;;5073332;28;20207;-40
2021/06/02 11:27:37;;;;;;;9.90;3.40;;;24.10;45.40;;;;;;5073219;28;20403;-40
2021/06/02 11:30:30;;;;;;;7.55;3.22;;;24.10;44.90;;;;;;5073201;28;20238;-40
2021/06/02 11:33:09;;;;;;;6.72;4.88;;;24.30;45.10;;;;;;5073170;28;20738;-40
2021/06/02 11:35:59;;;;;;;5.32;4.68;;;24.30;46.00;;;;;;5073255;28;20297;-38
2021/06/02 11:38:28;;;;;;;9.00;4.32;;;24.40;47.70;;;;;;5073126;28;20636;-38
2021/06/02 11:40:56;;;;;;;5.65;4.00;;;24.40;47.40;;;;;;5073004;28;20677;-39
2021/06/02 11:43:25;;;;;;;4.47;4.05;;;24.40;47.70;;;;;;5073121;28;20242;-40
2021/06/02 11:45:56;;;;;;;10.32;5.15;;;24.40;47.70;;;;;;5073151;28;20247;-39
2021/06/02 11:48:26;;;;;;;7.88;4.68;;;24.50;47.80;;;;;;5073002;28;20238;-40
2021/06/02 11:50:54;;;;;;;5.38;4.00;;;24.60;48.30;;;;;;5072918;28;20245;-40
2021/06/02 11:53:22;;;;;;;7.22;4.40;;;24.70;47.70;;;;;;5072910;28;20211;-40
2021/06/02 11:55:50;;;;;;;3.97;3.67;;;24.70;47.60;;;;;;5073101;28;20356;-40
2021/06/02 11:58:19;;;;;;;6.15;4.55;;;24.80;47.20;;;;;;5072938;28;20203;-39
2021/06/02 12:00:49;;;;;;;5.53;5.00;;;24.80;47.00;;;;;;5072523;28;20336;-40
2021/06/02 12:03:17;;;;;;;6.50;4.38;;;24.90;46.70;;;;;;5072346;28;20632;-39
2021/06/02 12:05:44;;;;;;;5.10;4.70;;;24.90;46.50;;;;;;5072614;28;20245;-40
2021/06/02 12:08:13;;;;;;;5.55;4.68;;;24.90;46.30;;;;;;5072538;28;20314;-40
2021/06/02 12:10:43;;;;;;;5.22;4.50;;;24.90;46.00;;;;;;5072594;28;20299;-39
2021/06/02 12:13:15;;;;;;;7.57;4.68;;;24.90;45.90;;;;;;5072636;28;20634;-39
2021/06/02 12:15:44;;;;;;;9.43;7.43;;;24.80;46.00;;;;;;5071421;28;20524;-40
2021/06/02 12:18:29;;;;;;;4.20;3.90;;;24.80;45.90;;;;;;5072507;28;20540;-40
2021/06/02 12:21:12;;;;;;;26.92;5.50;;;24.80;45.50;;;;;;5073159;28;20725;-40
2021/06/02 12:23:54;;;;;;;6.50;4.75;;;24.80;45.10;;;;;;5072163;28;20211;-40
2021/06/02 12:26:28;;;;;;;5.00;4.15;;;24.90;44.80;;;;;;5072113;28;20295;-40
2021/06/02 12:28:57;;;;;;;6.63;3.75;;;25.00;44.50;;;;;;5072427;28;20292;-41
2021/06/02 12:31:38;;;;;;;6.85;3.90;;;;;;;;;;5072471;28;20208;-41
2021/06/02 12:34:13;;;;;;;8.82;3.78;;;26.00;51.10;;;;;;5072030;28;20203;-41
2021/06/02 12:36:47;;;;;;;6.72;3.72;;;25.20;44.30;;;;;;5071913;28;20738;-42
2021/06/02 12:39:19;;;;;;;4.43;3.40;;;25.20;44.10;;;;;;5071799;28;20203;-41
2021/06/02 12:41:49;;;;;;;5.05;3.53;;;25.30;44.00;;;;;;5072100;28;20238;-43
2021/06/02 12:44:22;;;;;;;8.77;3.25;;;25.30;43.90;;;;;;5071802;28;20253;-41
2021/06/02 12:46:58;;;;;;;4.88;3.90;;;25.30;43.70;;;;;;5071894;28;20206;-40
2021/06/02 12:49:27;;;;;;;4.00;3.53;;;25.40;43.50;;;;;;5071750;28;20215;-41
2021/06/02 12:51:56;;;;;;;4.13;3.83;;;25.40;44.00;;;;;;5071890;28;20215;-41
2021/06/02 12:54:25;;;;;;;3.33;2.53;;;25.40;43.20;;;;;;5071766;28;20662;-41
2021/06/02 12:56:53;;;;;;;6.20;3.42;;;25.40;43.10;;;;;;5071767;28;20298;-41
2021/06/02 12:59:26;;;;;;;3.72;3.38;;;25.40;43.30;;;;;;5071772;28;20685;-41
2021/06/02 13:01:58;;;;;;;4.20;3.55;;;25.40;43.20;;;;;;5072049;28;20249;-41
2021/06/02 13:04:27;;;;;;;4.13;2.67;;;25.50;42.90;;;;;;5071813;28;20215;-41
2021/06/02 13:06:56;;;;;;;3.10;2.47;;;25.60;42.70;;;;;;5071641;28;20246;-40
2021/06/02 13:09:25;;;;;;;3.58;2.95;;;25.70;42.50;;;;;;5071688;28;20594;-43
2021/06/02 13:11:54;;;;;;;6.57;3.03;;;25.80;42.20;;;;;;5071786;28;20738;-41
2021/06/02 13:14:34;;;;;;;5.15;3.25;;;25.90;42.20;;;;;;5071670;28;20241;-41
2021/06/02 13:17:02;;;;;;;4.95;3.40;;;25.90;42.00;;;;;;5071882;28;20211;-38
2021/06/02 13:19:38;;;;;;;3.10;2.65;;;26.00;41.80;;;;;;5071859;28;20573;-41
2021/06/02 13:22:06;;;;;;;11.95;3.50;;;26.20;41.60;;;;;;5071716;28;20250;-40
2021/06/02 13:24:38;;;;;;;3.15;2.92;;;26.20;41.40;;;;;;5071287;28;20251;-40
2021/06/02 13:27:14;;;;;;;3.03;2.80;;;26.10;41.20;;;;;;5072788;28;20709;-40
2021/06/02 13:29:59;;;;;;;3.47;2.75;;;26.10;41.10;;;;;;5075866;28;20225;-40
2021/06/02 13:32:26;;;;;;;3.20;2.88;;;26.10;41.30;;;;;;5075488;28;20681;-40
2021/06/02 13:35:02;;;;;;;4.25;3.17;;;26.10;41.20;;;;;;5075316;28;20215;-39
2021/06/02 13:37:41;;;;;;;3.90;3.28;;;26.20;41.00;;;;;;5075545;28;20290;-41
2021/06/02 13:40:11;;;;;;;3.05;2.78;;;26.20;40.80;;;;;;5075383;28;20297;-42